Time;durP1;ratioP1;P1;durP2;ratioP2;P2;SDS_P1;SDS_P2;PMS_P1;PMS_P2;Temp;Humidity;BMP_temperature;BMP_pressure;BME280_temperature;BME280_humidity;BME280_pressure;Samples;Min_cycle;Max_cycle;Signal;HPM_P1;HPM_P2
2023/09/27 00:00:11;;;;;;;2.80;2.20;;;;;;;19.80;55.40;101901.31;5107750;28;20052;-82
2023/09/27 00:02:41;;;;;;;3.25;2.22;;;;;;;19.99;55.25;101932.72;5116514;28;20039;-81
2023/09/27 00:05:10;;;;;;;2.65;2.30;;;;;;;19.69;55.51;101882.59;5115592;28;20028;-82
2023/09/27 00:07:36;;;;;;;2.58;2.15;;;;;;;19.67;55.16;101887.31;5109991;28;20103;-81
2023/09/27 00:10:03;;;;;;;2.90;2.33;;;;;;;19.98;55.31;101941.81;5118057;28;20086;-82
2023/09/27 00:12:28;;;;;;;3.25;2.60;;;;;;;19.97;55.41;101957.19;5113152;28;20024;-82
2023/09/27 00:14:55;;;;;;;3.53;2.40;;;;;;;19.83;55.39;101933.34;5116846;27;20076;-82
2023/09/27 00:17:21;;;;;;;2.67;2.45;;;;;;;19.96;55.46;101958.19;5118872;28;20024;-83
2023/09/27 00:19:46;;;;;;;2.60;2.22;;;;;;;19.77;55.36;101928.56;5104343;28;20031;-82
2023/09/27 00:22:11;;;;;;;2.70;2.42;;;;;;;19.40;55.45;101863.81;5116024;28;20033;-81
2023/09/27 00:24:38;;;;;;;2.55;2.03;;;;;;;19.82;55.53;101937.06;5116296;28;20118;-82
2023/09/27 00:27:04;;;;;;;3.35;2.78;;;;;;;19.91;55.63;101946.13;5108798;28;20055;-82
2023/09/27 00:29:29;;;;;;;3.45;2.40;;;;;;;19.95;55.42;101955.59;5118135;28;20105;-82
2023/09/27 00:31:54;;;;;;;2.85;2.13;;;;;;;19.89;55.53;101957.06;5114035;28;20028;-82
2023/09/27 00:34:19;;;;;;;2.97;2.53;;;;;;;19.95;55.74;101966.41;5107500;28;20058;-82
2023/09/27 00:36:45;;;;;;;2.90;2.40;;;;;;;19.75;55.53;101943.22;5115512;28;20031;-82
2023/09/27 00:39:10;;;;;;;3.80;2.85;;;;;;;19.88;55.42;101966.19;5111699;28;20067;-82
2023/09/27 00:41:35;;;;;;;3.60;2.50;;;;;;;19.64;55.39;101917.28;5109551;28;20053;-81
2023/09/27 00:44:00;;;;;;;2.65;2.15;;;;;;;19.55;55.50;101894.72;5108537;28;20084;-83
2023/09/27 00:46:26;;;;;;;2.60;1.95;;;;;;;19.71;55.44;101929.19;5104120;28;20016;-82
2023/09/27 00:48:51;;;;;;;3.03;2.55;;;;;;;19.65;55.65;101921.66;5108064;28;20023;-82
2023/09/27 00:51:16;;;;;;;2.67;2.22;;;;;;;19.67;55.48;101922.38;5088207;28;20030;-82
2023/09/27 00:53:42;;;;;;;3.08;2.30;;;;;;;19.93;55.39;101960.31;5105322;28;20564;-83
2023/09/27 00:56:08;;;;;;;2.83;2.30;;;;;;;19.73;55.44;101927.19;5108923;28;20084;-82
2023/09/27 00:58:34;;;;;;;2.28;2.08;;;;;;;19.71;55.53;101913.84;5105734;28;20020;-82
2023/09/27 01:01:00;;;;;;;3.67;2.20;;;;;;;19.70;55.68;101914.81;5105992;28;20046;-82
2023/09/27 01:03:25;;;;;;;2.58;2.13;;;;;;;19.71;55.34;101921.94;5094721;28;20034;-79
2023/09/27 01:05:51;;;;;;;2.90;2.40;;;;;;;19.76;55.59;101934.13;5113772;28;20027;-82
2023/09/27 01:08:16;;;;;;;3.03;2.45;;;;;;;19.68;55.50;101916.84;5105778;28;20024;-82
2023/09/27 01:10:41;;;;;;;2.60;2.30;;;;;;;19.86;55.47;101932.22;5092893;28;20374;-82
2023/09/27 01:13:08;;;;;;;2.90;2.38;;;;;;;19.92;55.55;101945.09;5104297;28;20924;-82
2023/09/27 01:15:34;;;;;;;2.47;2.10;;;;;;;19.91;55.33;101946.97;5105900;28;20035;-82
2023/09/27 01:18:00;;;;;;;3.25;2.13;;;;;;;19.64;55.67;101888.44;5112402;28;20039;-82
2023/09/27 01:20:27;;;;;;;2.50;2.10;;;;;;;19.91;55.43;101927.22;5104518;28;20028;-82
2023/09/27 01:23:02;;;;;;;3.13;2.40;;;;;;;19.90;55.30;101925.53;5101513;28;20116;-82
2023/09/27 01:25:29;;;;;;;2.97;2.38;;;;;;;19.78;55.19;101919.47;5112347;28;20516;-83
2023/09/27 01:27:58;;;;;;;2.47;2.17;;;;;;;19.89;55.70;101940.88;5108670;28;20485;-83
2023/09/27 01:30:25;;;;;;;3.00;2.30;;;;;;;19.77;55.39;101920.47;5108746;28;20064;-82
2023/09/27 01:32:50;;;;;;;3.17;2.33;;;;;;;19.82;55.33;101928.97;5104482;28;20044;-82
2023/09/27 01:35:16;;;;;;;4.25;2.40;;;;;;;19.56;55.43;101874.81;5101538;28;20035;-82
2023/09/27 01:37:41;;;;;;;2.80;2.40;;;;;;;19.84;55.23;101916.19;5111596;28;20020;-82
2023/09/27 01:40:09;;;;;;;2.67;2.22;;;;;;;19.71;55.42;101900.34;5094390;28;20035;-82
2023/09/27 01:42:42;;;;;;;3.28;2.25;;;;;;;19.89;55.35;101918.44;5107548;28;20024;-82
2023/09/27 01:45:07;;;;;;;2.42;2.20;;;;;;;19.71;55.50;101894.13;5112748;28;20053;-82
2023/09/27 01:47:32;;;;;;;3.25;2.80;;;;;;;19.88;55.44;101927.50;5112876;28;20020;-82
2023/09/27 01:49:58;;;;;;;2.45;2.20;;;;;;;19.63;55.36;101885.91;5095108;28;20028;-82
2023/09/27 01:52:23;;;;;;;2.95;2.35;;;;;;;19.84;55.41;101920.75;5116943;28;20024;-83
2023/09/27 01:54:48;;;;;;;2.80;2.38;;;;;;;19.86;55.37;101924.97;5114263;28;20024;-81
2023/09/27 01:57:14;;;;;;;2.70;2.20;;;;;;;19.79;55.35;101910.38;5113507;28;20028;-83
2023/09/27 01:59:39;;;;;;;2.83;2.30;;;;;;;19.83;55.51;101902.81;5108576;28;20023;-81
2023/09/27 02:02:04;;;;;;;3.78;2.80;;;;;;;19.86;55.40;101907.94;5119723;28;20046;-82
2023/09/27 02:04:29;;;;;;;2.65;2.38;;;;;;;19.85;55.40;101909.78;5112380;28;20032;-82
2023/09/27 02:06:55;;;;;;;3.10;2.28;;;;;;;19.60;55.76;101875.38;5123766;28;20729;-82
2023/09/27 02:09:20;;;;;;;3.05;2.47;;;;;;;19.84;55.67;101918.03;5113037;28;20048;-82
2023/09/27 02:11:45;;;;;;;3.83;2.35;;;;;;;19.66;55.53;101880.19;5108514;28;20050;-82
2023/09/27 02:14:10;;;;;;;2.55;2.35;;;;;;;19.61;55.22;101874.41;5118526;27;20043;-81
2023/09/27 02:16:41;;;;;;;3.20;2.55;;;;;;;19.76;55.25;101899.06;5115744;28;20039;-82
2023/09/27 02:19:06;;;;;;;2.75;2.35;;;;;;;19.67;55.38;101893.56;5115585;28;20030;-82
2023/09/27 02:21:32;;;;;;;3.22;2.42;;;;;;;19.39;55.38;101854.88;5103877;28;20119;-82
2023/09/27 02:23:57;;;;;;;2.90;2.33;;;;;;;19.83;55.61;101921.72;5105953;28;20032;-82
2023/09/27 02:26:23;;;;;;;2.58;2.30;;;;;;;19.81;55.40;101919.19;5108027;28;20031;-82
2023/09/27 02:28:48;;;;;;;2.60;2.28;;;;;;;19.59;55.67;101896.13;5106731;28;20322;-82
2023/09/27 02:31:13;;;;;;;3.88;2.42;;;;;;;19.75;55.32;101932.41;5109952;28;20023;-82
2023/09/27 02:33:39;;;;;;;3.13;2.55;;;;;;;19.79;55.23;101934.66;5122089;28;20102;-81
2023/09/27 02:36:04;;;;;;;3.33;2.60;;;;;;;19.64;55.64;101906.50;5115875;28;20060;-78
2023/09/27 02:38:29;;;;;;;3.03;2.40;;;;;;;19.79;55.25;101923.88;5094847;28;20032;-82
2023/09/27 02:40:55;;;;;;;3.13;2.15;;;;;;;19.49;55.49;101876.41;5119624;28;20047;-82
2023/09/27 02:43:20;;;;;;;2.85;2.55;;;;;;;19.62;55.23;101906.63;5112974;28;20408;-82
2023/09/27 02:45:46;;;;;;;3.83;2.58;;;;;;;19.64;55.44;101910.03;5113595;28;20047;-82
2023/09/27 02:48:11;;;;;;;3.05;2.28;;;;;;;19.33;55.19;101857.34;5119532;28;20480;-82
2023/09/27 02:50:37;;;;;;;2.50;2.28;;;;;;;19.79;55.16;101947.31;5111310;28;20063;-82
2023/09/27 02:53:02;;;;;;;3.53;2.35;;;;;;;19.60;55.31;101921.25;5109953;28;20031;-82
2023/09/27 02:55:28;;;;;;;2.75;2.38;;;;;;;19.55;55.44;101918.16;5105826;28;20101;-81
2023/09/27 02:57:53;;;;;;;3.05;2.63;;;;;;;19.62;55.58;101919.25;5107769;28;20036;-82
2023/09/27 03:00:19;;;;;;;3.35;2.47;;;;;;;19.61;55.44;101926.50;5109687;28;20028;-82
2023/09/27 03:02:44;;;;;;;2.58;2.38;;;;;;;19.51;55.41;101905.94;5106806;28;20030;-81
2023/09/27 03:05:10;;;;;;;3.67;2.35;;;;;;;19.64;55.24;101925.38;5102534;28;20020;-83
2023/09/27 03:07:35;;;;;;;3.10;2.70;;;;;;;19.59;55.27;101933.03;5110833;28;20016;-82
2023/09/27 03:10:08;;;;;;;3.30;2.72;;;;;;;19.45;55.35;101896.59;5108678;28;20401;-82
2023/09/27 03:12:33;;;;;;;3.55;2.47;;;;;;;19.72;55.47;101950.63;5110013;28;20028;-82
2023/09/27 03:14:59;;;;;;;2.75;2.22;;;;;;;19.42;55.55;101894.22;5116407;27;20416;-82
2023/09/27 03:17:24;;;;;;;3.47;2.40;;;;;;;19.54;55.50;101924.50;5105764;28;20055;-82
2023/09/27 03:19:49;;;;;;;3.13;2.08;;;;;;;19.72;55.40;101953.31;5113708;27;20027;-82
2023/09/27 03:22:15;;;;;;;2.72;2.30;;;;;;;19.71;55.32;101946.22;5106082;28;20024;-82
2023/09/27 03:24:40;;;;;;;2.92;2.47;;;;;;;19.35;55.12;101893.94;5109328;28;20035;-82
2023/09/27 03:27:08;;;;;;;2.97;2.25;;;;;;;19.42;55.36;101902.28;5111529;28;20016;-82
2023/09/27 03:29:33;;;;;;;3.67;2.20;;;;;;;19.62;55.43;101925.50;5099729;28;20039;-82
2023/09/27 03:31:59;;;;;;;3.25;2.53;;;;;;;19.48;55.16;101905.25;5109294;28;20039;-83
2023/09/27 03:34:24;;;;;;;2.85;2.25;;;;;;;19.63;55.54;101929.94;5102796;28;20043;-82
2023/09/27 03:36:55;;;;;;;3.17;2.40;;;;;;;19.69;55.04;101955.44;5112735;28;20028;-82
2023/09/27 03:39:22;;;;;;;3.80;2.50;;;;;;;19.41;55.29;101903.28;5109212;28;20017;-82
2023/09/27 03:41:47;;;;;;;3.00;2.63;;;;;;;19.68;55.31;101942.97;5114545;28;20084;-81
2023/09/27 03:44:13;;;;;;;3.42;2.45;;;;;;;19.52;55.30;101913.03;5113398;28;20028;-82
2023/09/27 03:46:38;;;;;;;3.78;2.42;;;;;;;19.67;55.15;101939.41;5108310;28;20024;-82
2023/09/27 03:49:04;;;;;;;3.60;2.45;;;;;;;19.52;55.15;101918.44;5122560;28;20469;-83
2023/09/27 03:51:29;;;;;;;2.80;2.30;;;;;;;19.37;55.42;101899.16;5113639;28;20020;-82
2023/09/27 03:53:54;;;;;;;3.03;2.40;;;;;;;19.56;55.01;101927.94;5109299;28;20058;-82
2023/09/27 03:56:19;;;;;;;3.45;2.53;;;;;;;19.57;55.38;101935.03;5118491;28;20023;-82
2023/09/27 03:58:45;;;;;;;2.45;2.10;;;;;;;19.31;55.36;101883.59;5117655;28;20374;-81
2023/09/27 04:01:10;;;;;;;2.58;2.13;;;;;;;19.43;55.07;101902.13;5110490;28;20027;-82
2023/09/27 04:03:36;;;;;;;2.95;2.47;;;;;;;19.59;54.93;101919.56;5116933;28;20055;-83
2023/09/27 04:06:01;;;;;;;2.65;2.30;;;;;;;19.17;55.13;101866.91;5110276;28;20016;-83
2023/09/27 04:08:26;;;;;;;2.97;2.25;;;;;;;19.32;54.72;101898.78;5121203;28;20016;-82
2023/09/27 04:10:52;;;;;;;2.30;2.10;;;;;;;19.62;55.17;101943.53;5115334;28;20047;-83
2023/09/27 04:13:17;;;;;;;2.47;2.25;;;;;;;19.40;55.04;101902.44;5109142;28;20095;-83
2023/09/27 04:15:42;;;;;;;2.50;2.30;;;;;;;19.62;55.21;101932.75;5119535;27;20032;-82
2023/09/27 04:18:07;;;;;;;3.35;2.35;;;;;;;19.61;55.16;101934.59;5115988;28;20043;-82
2023/09/27 04:20:33;;;;;;;3.03;2.40;;;;;;;19.33;55.21;101895.09;5096801;28;20032;-81
2023/09/27 04:22:58;;;;;;;3.38;2.70;;;;;;;19.33;55.04;101900.50;5115933;28;20028;-83
2023/09/27 04:25:23;;;;;;;2.17;1.98;;;;;;;19.37;54.90;101910.84;5102025;28;20031;-83
2023/09/27 04:27:49;;;;;;;4.47;3.17;;;;;;;19.34;55.15;101904.88;5108353;28;20020;-82
2023/09/27 04:30:18;;;;;;;2.47;2.20;;;;;;;19.33;55.02;101911.28;5118383;28;20023;-82
2023/09/27 04:32:46;;;;;;;2.78;2.47;;;;;;;19.45;55.06;101934.34;5113953;28;20039;-82
2023/09/27 04:35:12;;;;;;;2.30;2.10;;;;;;;19.44;55.07;101955.06;5107997;28;20039;-82
2023/09/27 04:37:38;;;;;;;3.08;2.78;;;;;;;19.28;55.10;101922.47;5104144;28;20024;-82
2023/09/27 04:40:17;;;;;;;2.55;2.35;;;;;;;19.33;55.02;101922.91;5110030;28;20092;-82
2023/09/27 04:42:43;;;;;;;2.97;2.20;;;;;;;19.56;55.06;101961.16;5111713;28;20039;-81
2023/09/27 04:45:10;;;;;;;2.60;2.35;;;;;;;19.56;55.27;101969.25;5115813;28;20023;-82
2023/09/27 04:47:35;;;;;;;4.38;2.38;;;;;;;19.55;54.77;101972.09;5098582;28;20027;-81
2023/09/27 04:50:01;;;;;;;2.58;2.20;;;;;;;19.30;54.97;101933.97;5113766;28;20028;-82
2023/09/27 04:52:26;;;;;;;2.72;2.42;;;;;;;19.34;55.33;101942.63;5114479;28;20032;-82
2023/09/27 04:54:58;;;;;;;3.03;2.30;;;;;;;19.47;55.17;101967.44;5107330;28;20031;-81
2023/09/27 04:57:24;;;;;;;3.05;2.75;;;;;;;19.33;55.08;101936.41;5116269;28;20028;-82
2023/09/27 04:59:51;;;;;;;2.97;2.42;;;;;;;19.54;54.79;101983.84;5115367;28;20030;-82
2023/09/27 05:02:16;;;;;;;3.55;2.70;;;;;;;19.05;54.69;101911.19;5109395;28;20492;-82
2023/09/27 05:04:42;;;;;;;2.88;2.33;;;;;;;19.31;54.86;101957.25;5103801;28;20084;-82
2023/09/27 05:07:07;;;;;;;2.80;2.45;;;;;;;19.39;55.02;101980.78;5102165;28;20016;-82
2023/09/27 05:09:32;;;;;;;3.30;2.30;;;;;;;19.15;55.10;101938.13;5118772;28;20678;-82
2023/09/27 05:11:58;;;;;;;2.97;2.60;;;;;;;19.08;55.07;101937.88;5092336;28;20031;-82
2023/09/27 05:14:23;;;;;;;2.35;2.13;;;;;;;19.08;55.22;101934.31;5097445;28;20020;-79
2023/09/27 05:16:49;;;;;;;3.35;2.60;;;;;;;19.31;54.94;101973.44;5107877;28;20122;-81
2023/09/27 05:19:14;;;;;;;3.22;2.40;;;;;;;19.14;55.24;101925.66;5111668;28;20024;-82
2023/09/27 05:21:39;;;;;;;2.90;2.30;;;;;;;18.88;54.91;101882.28;5105624;28;20038;-82
2023/09/27 05:24:06;;;;;;;3.22;2.50;;;;;;;19.12;54.82;101925.81;5107403;28;20032;-82
2023/09/27 05:26:31;;;;;;;2.92;2.42;;;;;;;19.38;55.07;101971.00;5106696;28;20042;-83
2023/09/27 05:28:56;;;;;;;3.22;2.78;;;;;;;19.25;55.09;101948.91;5122164;28;20119;-82
2023/09/27 05:31:22;;;;;;;5.28;3.03;;;;;;;19.31;55.07;101965.34;5112827;28;20039;-82
2023/09/27 05:33:48;;;;;;;2.60;2.25;;;;;;;18.82;55.19;101866.69;5112530;28;20036;-81
2023/09/27 05:36:13;;;;;;;2.72;2.20;;;;;;;19.03;54.81;101899.72;5121505;28;20117;-81
2023/09/27 05:38:39;;;;;;;3.35;2.75;;;;;;;19.47;55.12;101967.44;5113789;28;20028;-81
2023/09/27 05:41:04;;;;;;;3.60;2.72;;;;;;;19.06;54.94;101896.72;5114151;28;20050;-81
2023/09/27 05:43:29;;;;;;;2.55;2.20;;;;;;;19.00;54.83;101889.22;5109153;28;20095;-82
2023/09/27 05:45:56;;;;;;;2.95;2.45;;;;;;;18.87;54.89;101869.81;5101659;28;20028;-82
2023/09/27 05:48:22;;;;;;;3.53;3.00;;;;;;;19.14;55.13;101926.50;5122254;28;20032;-81
2023/09/27 05:50:47;;;;;;;3.63;2.80;;;;;;;18.90;55.10;101880.28;5112242;28;20031;-81
2023/09/27 05:53:12;;;;;;;3.70;2.60;;;;;;;19.24;55.11;101950.72;5114911;28;20038;-81
2023/09/27 05:55:39;;;;;;;3.30;2.80;;;;;;;19.03;55.25;101915.00;5114372;28;20039;-81
2023/09/27 05:58:24;;;;;;;3.35;2.72;;;;;;;19.46;54.98;101995.41;5111854;28;20088;-81
2023/09/27 06:00:51;;;;;;;3.17;2.70;;;;;;;19.46;55.18;101973.81;5106861;28;20534;-81
2023/09/27 06:03:17;;;;;;;3.58;2.38;;;;;;;19.10;54.98;101905.38;5093339;28;20019;-82
2023/09/27 06:05:43;;;;;;;2.85;2.55;;;;;;;19.45;55.11;101970.28;5098690;28;20023;-81
2023/09/27 06:08:09;;;;;;;3.00;2.58;;;;;;;18.70;54.85;101841.78;5105273;28;20080;-80
2023/09/27 06:10:35;;;;;;;3.38;2.83;;;;;;;19.32;54.98;101936.53;5097480;28;20028;-82
2023/09/27 06:13:01;;;;;;;4.40;3.28;;;;;;;19.45;55.07;101961.31;5109148;28;20061;-82
2023/09/27 06:15:27;;;;;;;3.20;2.72;;;;;;;19.45;54.87;101954.09;5102171;28;20119;-82
2023/09/27 06:17:53;;;;;;;4.15;2.50;;;;;;;18.51;55.10;101796.81;5098535;28;20028;-82
2023/09/27 06:20:20;;;;;;;3.47;2.40;;;;;;;18.82;55.17;101856.78;5098898;28;20028;-82
2023/09/27 06:22:56;;;;;;;3.85;2.83;;;;;;;19.37;54.98;101959.38;5095957;28;20091;-82
2023/09/27 06:25:28;;;;;;;3.25;2.53;;;;;;;19.45;55.09;101964.00;5105957;28;20027;-82
2023/09/27 06:27:54;;;;;;;4.38;2.97;;;;;;;19.03;55.30;101891.63;5104319;28;20035;-82
2023/09/27 06:30:20;;;;;;;3.10;2.78;;;;;;;19.28;55.25;101927.03;5093813;28;20028;-82
2023/09/27 06:32:48;;;;;;;3.10;2.60;;;;;;;19.32;55.08;101939.22;5098142;28;20062;-82
2023/09/27 06:35:14;;;;;;;3.55;3.20;;;;;;;19.44;54.99;101952.38;5099747;28;20066;-82
2023/09/27 06:37:48;;;;;;;4.10;3.33;;;;;;;19.38;55.26;101946.75;5092131;28;20024;-82
2023/09/27 06:40:19;;;;;;;4.07;3.05;;;;;;;19.40;55.09;101963.59;5104274;28;20028;-82
2023/09/27 06:42:48;;;;;;;3.83;2.75;;;;;;;19.44;55.26;101962.31;5098940;28;20081;-82
2023/09/27 06:45:17;;;;;;;3.63;2.78;;;;;;;18.63;55.18;101819.91;5094115;28;20062;-82
2023/09/27 06:47:46;;;;;;;3.28;2.72;;;;;;;19.25;55.23;101925.50;5106957;28;20028;-82
2023/09/27 06:50:14;;;;;;;4.13;3.08;;;;;;;18.87;55.22;101862.59;5097535;28;20469;-82
2023/09/27 06:52:40;;;;;;;3.72;2.80;;;;;;;19.25;54.99;101938.13;5104980;28;20032;-82
2023/09/27 06:55:19;;;;;;;3.17;2.70;;;;;;;19.33;55.23;101957.97;5106625;28;20028;-81
2023/09/27 06:57:45;;;;;;;;;;;;;;;19.46;54.98;101985.47;5105279;28;20039;-81
2023/09/27 07:00:24;;;;;;;3.95;3.17;;;;;;;18.81;54.97;101873.94;5097796;28;19908;-81
2023/09/27 07:02:50;;;;;;;;;;;;;;;19.46;55.37;101981.91;5101392;28;20053;-82
2023/09/27 07:05:16;;;;;;;3.90;2.97;;;;;;;19.24;55.13;101956.13;5108572;28;19908;-82
2023/09/27 07:07:43;;;;;;;3.47;3.00;;;;;;;19.43;55.41;101977.66;5106487;28;20038;-81
2023/09/27 07:10:09;;;;;;;3.30;2.83;;;;;;;19.00;55.43;101900.00;5099805;28;20127;-82
2023/09/27 07:12:36;;;;;;;3.78;2.88;;;;;;;19.23;55.54;101935.56;5104185;28;20035;-82
2023/09/27 07:15:13;;;;;;;3.28;2.83;;;;;;;19.44;55.46;101973.94;5107431;28;20036;-82
2023/09/27 07:17:43;;;;;;;3.13;2.83;;;;;;;19.39;55.24;101975.41;5107093;28;20058;-81
2023/09/27 07:20:20;;;;;;;3.97;3.10;;;;;;;19.46;55.47;101984.63;5091101;28;20023;-82
2023/09/27 07:22:47;;;;;;;3.65;3.00;;;;;;;19.41;55.05;101970.69;5094075;28;20039;-81
2023/09/27 07:25:16;;;;;;;3.40;3.10;;;;;;;19.34;55.35;101956.13;5105353;28;20130;-81
2023/09/27 07:27:43;;;;;;;;;;;;;;;19.48;55.50;101985.31;5102798;28;20027;-82
2023/09/27 07:30:17;;;;;;;3.60;3.30;;;;;;;19.47;55.46;102006.03;5104198;28;19933;-82
2023/09/27 07:32:44;;;;;;;3.25;2.95;;;;;;;18.95;55.42;101908.53;5105161;28;20059;-82
2023/09/27 07:35:12;;;;;;;4.18;3.30;;;;;;;19.39;55.23;101984.34;5103997;28;20031;-82
2023/09/27 07:37:39;;;;;;;3.33;2.95;;;;;;;19.15;55.51;101944.34;5103236;28;20061;-81
2023/09/27 07:40:11;;;;;;;3.40;2.78;;;;;;;19.08;55.48;101934.31;5098528;28;20055;-82
2023/09/27 07:42:44;;;;;;;4.10;3.20;;;;;;;19.41;55.56;101984.19;5094254;28;20031;-82
2023/09/27 07:45:32;;;;;;;4.00;3.08;;;;;;;19.03;55.31;101923.97;5099679;28;20020;-82
2023/09/27 07:47:58;;;;;;;5.13;3.28;;;;;;;19.41;55.34;101987.75;5106426;28;20043;-82
2023/09/27 07:50:31;;;;;;;3.33;2.67;;;;;;;19.21;55.31;101956.44;5103948;28;20035;-82
2023/09/27 07:53:03;;;;;;;3.92;2.97;;;;;;;19.33;55.41;101973.31;5101587;28;20019;-82
2023/09/27 07:55:35;;;;;;;3.22;2.85;;;;;;;19.51;55.20;102001.22;5105532;28;20024;-82
2023/09/27 07:58:03;;;;;;;3.45;2.80;;;;;;;18.93;55.18;101901.56;5094344;28;20031;-81
2023/09/27 08:00:30;;;;;;;4.15;3.17;;;;;;;19.51;55.42;101990.41;5101754;28;20866;-82
2023/09/27 08:02:59;;;;;;;3.38;2.60;;;;;;;19.45;55.34;101972.97;5095743;28;20032;-82
2023/09/27 08:05:25;;;;;;;2.70;2.50;;;;;;;19.14;55.52;101896.84;5104323;28;20035;-81
2023/09/27 08:07:53;;;;;;;3.47;2.95;;;;;;;19.52;55.43;101967.84;5095272;28;20024;-82
2023/09/27 08:10:20;;;;;;;3.42;2.88;;;;;;;19.37;55.33;101936.94;5095654;28;20048;-82
2023/09/27 08:12:47;;;;;;;3.47;2.88;;;;;;;19.46;55.66;101963.03;5104251;28;20038;-82
2023/09/27 08:15:13;;;;;;;2.70;2.50;;;;;;;18.94;55.33;101861.00;5110910;27;20055;-82
2023/09/27 08:17:39;;;;;;;3.70;3.33;;;;;;;19.54;55.40;101965.84;5104900;28;20036;-82
2023/09/27 08:20:09;;;;;;;3.92;2.67;;;;;;;19.22;55.54;101910.44;5103410;28;20028;-82
2023/09/27 08:22:36;;;;;;;3.95;2.97;;;;;;;19.53;55.52;101965.97;5094989;28;20030;-82
2023/09/27 08:25:04;;;;;;;3.70;3.05;;;;;;;19.01;55.66;101876.59;5101220;28;20039;-82
2023/09/27 08:27:30;;;;;;;3.33;2.70;;;;;;;19.55;55.37;101964.00;5110367;28;20055;-83
2023/09/27 08:29:56;;;;;;;3.50;2.58;;;;;;;19.56;55.36;101976.50;5105232;28;20028;-83
2023/09/27 08:32:22;;;;;;;3.45;2.53;;;;;;;19.50;55.69;101972.53;5104066;28;20055;-82
2023/09/27 08:34:52;;;;;;;2.83;2.30;;;;;;;19.25;55.75;101919.25;5095440;28;20028;-82
2023/09/27 08:37:18;;;;;;;2.78;2.55;;;;;;;18.85;55.37;101852.94;5099169;28;20032;-82
2023/09/27 08:39:44;;;;;;;2.65;2.30;;;;;;;19.58;55.45;101990.66;5098138;28;20100;-82
2023/09/27 08:42:10;;;;;;;2.90;2.60;;;;;;;19.59;55.73;102009.41;5103476;28;20028;-82
2023/09/27 08:44:40;;;;;;;3.30;3.00;;;;;;;18.99;55.66;101906.41;5114278;28;20035;-82
2023/09/27 08:47:05;;;;;;;;;;;;;;;19.60;55.51;102021.06;5102887;28;20163;-82
2023/09/27 08:49:31;;;;;;;3.13;2.70;;;;;;;19.50;55.54;102021.09;5101382;28;19908;-82
2023/09/27 08:51:57;;;;;;;3.58;2.83;;;;;;;19.62;55.41;102027.19;5104068;28;20481;-82
2023/09/27 08:54:23;;;;;;;3.67;3.35;;;;;;;19.37;55.40;101990.84;5102606;28;20073;-82
2023/09/27 08:56:50;;;;;;;3.13;2.50;;;;;;;18.92;55.69;101916.03;5103942;28;20024;-81
2023/09/27 08:59:44;;;;;;;2.95;2.47;;;;;;;19.64;55.37;102027.91;5102534;28;20024;-82
2023/09/27 09:02:11;;;;;;;3.58;2.45;;;;;;;19.59;55.25;102027.47;5095850;28;20027;-82
2023/09/27 09:04:40;;;;;;;3.17;2.75;;;;;;;19.65;55.44;102035.84;5099811;28;20032;-82
2023/09/27 09:07:07;;;;;;;2.75;2.50;;;;;;;19.33;55.33;101976.84;5097489;28;20024;-81
2023/09/27 09:09:33;;;;;;;3.63;2.70;;;;;;;19.67;55.41;102038.41;5101765;28;20044;-82
2023/09/27 09:12:08;;;;;;;3.67;2.42;;;;;;;19.18;55.39;101949.47;5104580;28;20043;-82
2023/09/27 09:14:49;;;;;;;3.17;2.70;;;;;;;19.61;55.26;102031.72;5104760;28;20099;-83
2023/09/27 09:17:18;;;;;;;2.28;2.08;;;;;;;19.68;55.25;102043.66;5098084;28;20032;-82
2023/09/27 09:19:46;;;;;;;3.22;2.92;;;;;;;19.31;55.43;101961.78;5098692;28;20039;-82
2023/09/27 09:22:12;;;;;;;3.70;2.60;;;;;;;19.67;55.46;102025.75;5098092;28;20028;-82
2023/09/27 09:24:45;;;;;;;3.00;2.67;;;;;;;19.70;55.66;102043.50;5104020;28;20027;-82
2023/09/27 09:27:13;;;;;;;2.80;2.60;;;;;;;19.70;55.39;102030.84;5096460;28;20031;-82
2023/09/27 09:29:45;;;;;;;2.88;2.45;;;;;;;19.72;55.34;102030.72;5086922;28;20095;-83
2023/09/27 09:32:13;;;;;;;3.35;2.60;;;;;;;19.40;55.54;101963.59;5104335;28;20118;-83
2023/09/27 09:34:47;;;;;;;3.35;2.53;;;;;;;19.71;55.72;102013.69;5095846;28;20031;-82
2023/09/27 09:37:19;;;;;;;2.65;2.22;;;;;;;19.72;55.78;102017.22;5102499;28;20040;-82
2023/09/27 09:39:46;;;;;;;2.22;2.03;;;;;;;19.53;55.37;101976.78;5108189;28;20035;-82
2023/09/27 09:42:13;;;;;;;2.33;2.13;;;;;;;19.36;55.40;101935.22;5101819;28;20031;-81
2023/09/27 09:44:39;;;;;;;3.00;2.30;;;;;;;19.26;55.72;101916.41;5096665;28;20086;-82
2023/09/27 09:47:12;;;;;;;3.97;2.50;;;;;;;19.46;55.64;101957.66;5102214;28;20031;-82
2023/09/27 09:49:38;;;;;;;3.05;2.38;;;;;;;19.74;55.30;101990.94;5095261;28;20032;-83
2023/09/27 09:52:05;;;;;;;2.28;1.98;;;;;;;19.23;55.49;101906.75;5094628;28;20039;-82
2023/09/27 09:54:49;;;;;;;2.90;2.30;;;;;;;19.41;55.35;101936.50;5088902;28;20036;-82
2023/09/27 09:57:32;;;;;;;3.40;2.50;;;;;;;19.30;55.33;101912.41;5104121;28;20028;-82
2023/09/27 10:00:18;;;;;;;2.63;2.10;;;;;;;19.21;55.24;101889.03;5110708;28;20031;-82
2023/09/27 10:02:53;;;;;;;2.42;2.17;;;;;;;19.77;55.33;101977.16;5115263;28;20024;-82
2023/09/27 10:05:22;;;;;;;2.63;2.38;;;;;;;19.12;55.57;101860.25;5107303;28;20019;-82
2023/09/27 10:07:48;;;;;;;;;;;;;;;19.78;55.54;101970.75;5096967;28;20159;-82
2023/09/27 10:10:20;;;;;;;3.45;2.70;;;;;;;19.45;55.37;101920.84;5100840;28;19987;-82
2023/09/27 10:12:47;;;;;;;2.80;2.10;;;;;;;19.29;55.67;101882.91;5096881;28;20032;-82
2023/09/27 10:15:17;;;;;;;2.55;2.30;;;;;;;19.63;55.25;101931.78;5103201;28;20096;-82
2023/09/27 10:17:43;;;;;;;2.33;2.03;;;;;;;19.17;55.46;101849.88;5103170;27;20035;-82
2023/09/27 10:20:19;;;;;;;2.22;2.03;;;;;;;19.79;55.55;101948.16;5101036;28;20487;-83
2023/09/27 10:22:46;;;;;;;2.45;2.10;;;;;;;19.12;55.46;101831.47;5103151;28;20465;-82
2023/09/27 10:25:25;;;;;;;2.13;1.92;;;;;;;19.38;55.56;101868.53;5090333;28;20112;-83
2023/09/27 10:28:06;;;;;;;;;;;;;;;19.82;55.53;101930.81;5122414;28;20050;-83
2023/09/27 10:30:41;;;;;;;3.03;2.28;;;;;;;19.33;55.30;101839.31;5127765;27;20058;-84
2023/09/27 10:33:15;;;;;;;2.42;2.10;;;;;;;19.32;55.36;101834.06;5120333;28;20119;-83
2023/09/27 10:36:00;;;;;;;3.63;2.33;;;;;;;19.80;55.49;101911.25;5114563;28;20032;-83
2023/09/27 10:38:48;;;;;;;2.72;2.20;;;;;;;19.70;55.50;101898.63;5124652;28;20103;-83
2023/09/27 10:41:32;;;;;;;3.47;2.40;;;;;;;19.37;55.52;101845.22;5115624;28;20071;-82
2023/09/27 10:44:02;;;;;;;2.58;2.08;;;;;;;19.78;55.78;101913.22;5118969;28;20278;-82
2023/09/27 10:46:48;;;;;;;2.50;2.05;;;;;;;19.78;55.95;101902.44;5110524;28;20091;-83
2023/09/27 10:49:27;;;;;;;1.90;1.70;;;;;;;19.73;55.74;101894.78;5115312;28;20035;-83
2023/09/27 10:51:53;;;;;;;2.75;2.30;;;;;;;19.73;55.70;101889.41;5104830;28;20027;-83
2023/09/27 10:54:24;;;;;;;3.55;2.47;;;;;;;19.86;55.78;101916.03;5098338;28;20032;-83
2023/09/27 10:56:53;;;;;;;2.35;2.00;;;;;;;19.38;55.71;101837.00;5099986;28;20031;-83
2023/09/27 10:59:25;;;;;;;2.22;2.00;;;;;;;19.88;55.64;101920.28;5091299;28;20421;-82
2023/09/27 11:01:51;;;;;;;2.65;2.15;;;;;;;19.72;56.00;101880.47;5106948;28;20034;-83
2023/09/27 11:04:20;;;;;;;2.67;2.10;;;;;;;19.83;55.72;101909.06;5105154;28;20024;-83
2023/09/27 11:06:46;;;;;;;2.85;2.30;;;;;;;19.31;55.94;101816.19;5095245;28;20051;-83
2023/09/27 11:09:12;;;;;;;2.50;2.03;;;;;;;19.69;55.74;101879.91;5104019;28;20135;-83
2023/09/27 11:11:42;;;;;;;3.22;2.45;;;;;;;19.91;55.88;101901.06;5094217;28;20036;-83
2023/09/27 11:14:08;;;;;;;2.25;1.90;;;;;;;19.91;55.90;101890.28;5106160;28;20095;-84
2023/09/27 11:16:35;;;;;;;2.30;2.10;;;;;;;19.42;55.54;101819.53;5105012;28;20032;-82
2023/09/27 11:19:02;;;;;;;2.38;1.90;;;;;;;19.14;55.75;101753.13;5104793;28;20160;-83
2023/09/27 11:21:39;;;;;;;2.83;2.58;;;;;;;19.85;55.83;101866.59;5110252;28;20032;-83
2023/09/27 11:24:06;;;;;;;2.55;2.10;;;;;;;19.90;55.92;101875.09;5105112;28;20023;-83
2023/09/27 11:26:45;;;;;;;2.80;2.30;;;;;;;19.95;55.95;101880.88;5105127;28;20027;-84
2023/09/27 11:29:12;;;;;;;2.38;2.10;;;;;;;19.56;55.77;101809.25;5102115;28;20020;-84